sensor_id;sensor_type;location;lat;lon;timestamp;P1;durP1;ratioP1;P2;durP2;ratioP2
79790;SDS011;69278;52.220;5.172;2023-10-08T00:02:05;17.02;;;4.15;;
79790;SDS011;69278;52.220;5.172;2023-10-08T00:04:32;17.58;;;4.22;;
79790;SDS011;69278;52.220;5.172;2023-10-08T00:07:06;19.90;;;4.60;;
79790;SDS011;69278;52.220;5.172;2023-10-08T00:09:35;15.13;;;3.92;;
79790;SDS011;69278;52.220;5.172;2023-10-08T00:12:03;18.95;;;4.30;;
79790;SDS011;69278;52.220;5.172;2023-10-08T00:14:30;17.92;;;4.55;;
79790;SDS011;69278;52.220;5.172;2023-10-08T00:16:58;17.77;;;4.30;;
79790;SDS011;69278;52.220;5.172;2023-10-08T00:19:26;24.40;;;4.23;;
79790;SDS011;69278;52.220;5.172;2023-10-08T00:21:59;13.15;;;4.10;;
79790;SDS011;69278;52.220;5.172;2023-10-08T00:24:31;18.35;;;3.78;;
79790;SDS011;69278;52.220;5.172;2023-10-08T00:26:59;17.00;;;3.88;;
79790;SDS011;69278;52.220;5.172;2023-10-08T00:29:32;18.27;;;4.18;;
79790;SDS011;69278;52.220;5.172;2023-10-08T00:31:59;20.80;;;4.20;;
79790;SDS011;69278;52.220;5.172;2023-10-08T00:34:26;16.02;;;4.55;;
79790;SDS011;69278;52.220;5.172;2023-10-08T00:36:53;19.23;;;4.57;;
79790;SDS011;69278;52.220;5.172;2023-10-08T00:39:20;20.17;;;4.20;;
79790;SDS011;69278;52.220;5.172;2023-10-08T00:41:51;13.18;;;3.70;;
79790;SDS011;69278;52.220;5.172;2023-10-08T00:44:26;16.07;;;4.20;;
79790;SDS011;69278;52.220;5.172;2023-10-08T00:46:59;14.82;;;3.80;;
79790;SDS011;69278;52.220;5.172;2023-10-08T00:49:28;17.60;;;3.88;;
79790;SDS011;69278;52.220;5.172;2023-10-08T00:52:08;13.75;;;4.43;;
79790;SDS011;69278;52.220;5.172;2023-10-08T00:54:37;16.50;;;4.13;;
79790;SDS011;69278;52.220;5.172;2023-10-08T00:57:27;11.73;;;3.80;;
79790;SDS011;69278;52.220;5.172;2023-10-08T00:59:56;14.50;;;4.30;;
79790;SDS011;69278;52.220;5.172;2023-10-08T01:02:28;17.08;;;4.85;;
79790;SDS011;69278;52.220;5.172;2023-10-08T01:05:16;19.27;;;4.18;;
79790;SDS011;69278;52.220;5.172;2023-10-08T01:07:49;13.43;;;4.00;;
79790;SDS011;69278;52.220;5.172;2023-10-08T01:10:18;16.43;;;4.30;;
79790;SDS011;69278;52.220;5.172;2023-10-08T01:12:47;14.85;;;4.22;;
79790;SDS011;69278;52.220;5.172;2023-10-08T01:15:23;20.38;;;4.40;;
79790;SDS011;69278;52.220;5.172;2023-10-08T01:17:50;15.55;;;4.35;;
79790;SDS011;69278;52.220;5.172;2023-10-08T01:20:27;17.65;;;4.53;;
79790;SDS011;69278;52.220;5.172;2023-10-08T01:23:01;19.23;;;4.87;;
79790;SDS011;69278;52.220;5.172;2023-10-08T01:25:36;16.13;;;4.43;;
79790;SDS011;69278;52.220;5.172;2023-10-08T01:28:04;16.88;;;4.53;;
79790;SDS011;69278;52.220;5.172;2023-10-08T01:30:38;15.52;;;4.35;;
79790;SDS011;69278;52.220;5.172;2023-10-08T01:33:08;18.52;;;4.30;;
79790;SDS011;69278;52.220;5.172;2023-10-08T01:35:39;15.37;;;4.50;;
79790;SDS011;69278;52.220;5.172;2023-10-08T01:38:07;18.77;;;4.70;;
79790;SDS011;69278;52.220;5.172;2023-10-08T01:40:42;19.02;;;4.72;;
79790;SDS011;69278;52.220;5.172;2023-10-08T01:43:09;17.70;;;4.35;;
79790;SDS011;69278;52.220;5.172;2023-10-08T01:45:37;17.50;;;4.18;;
79790;SDS011;69278;52.220;5.172;2023-10-08T01:48:08;13.97;;;4.23;;
79790;SDS011;69278;52.220;5.172;2023-10-08T01:50:38;15.10;;;4.32;;
79790;SDS011;69278;52.220;5.172;2023-10-08T01:53:05;16.52;;;4.40;;
79790;SDS011;69278;52.220;5.172;2023-10-08T01:55:37;17.30;;;4.32;;
79790;SDS011;69278;52.220;5.172;2023-10-08T01:58:16;18.02;;;4.65;;
79790;SDS011;69278;52.220;5.172;2023-10-08T02:00:46;15.77;;;4.30;;
79790;SDS011;69278;52.220;5.172;2023-10-08T02:03:13;17.55;;;4.32;;
79790;SDS011;69278;52.220;5.172;2023-10-08T02:05:42;18.80;;;5.13;;
79790;SDS011;69278;52.220;5.172;2023-10-08T02:08:10;13.60;;;4.55;;
79790;SDS011;69278;52.220;5.172;2023-10-08T02:10:38;15.43;;;4.88;;
79790;SDS011;69278;52.220;5.172;2023-10-08T02:13:06;13.80;;;4.40;;
79790;SDS011;69278;52.220;5.172;2023-10-08T02:15:35;17.05;;;4.60;;
79790;SDS011;69278;52.220;5.172;2023-10-08T02:18:03;13.82;;;4.80;;
79790;SDS011;69278;52.220;5.172;2023-10-08T02:20:30;15.55;;;4.90;;
79790;SDS011;69278;52.220;5.172;2023-10-08T02:22:57;15.15;;;4.72;;
79790;SDS011;69278;52.220;5.172;2023-10-08T02:25:23;19.53;;;4.90;;
79790;SDS011;69278;52.220;5.172;2023-10-08T02:27:50;15.50;;;4.93;;
79790;SDS011;69278;52.220;5.172;2023-10-08T02:30:17;14.95;;;4.90;;
79790;SDS011;69278;52.220;5.172;2023-10-08T02:32:44;19.00;;;4.70;;
79790;SDS011;69278;52.220;5.172;2023-10-08T02:35:12;20.38;;;5.45;;
79790;SDS011;69278;52.220;5.172;2023-10-08T02:37:40;14.40;;;4.87;;
79790;SDS011;69278;52.220;5.172;2023-10-08T02:40:07;14.68;;;4.40;;
79790;SDS011;69278;52.220;5.172;2023-10-08T02:43:07;17.08;;;4.78;;
79790;SDS011;69278;52.220;5.172;2023-10-08T02:45:35;14.55;;;4.75;;
79790;SDS011;69278;52.220;5.172;2023-10-08T02:48:05;19.67;;;5.50;;
79790;SDS011;69278;52.220;5.172;2023-10-08T02:50:39;20.97;;;5.50;;
79790;SDS011;69278;52.220;5.172;2023-10-08T02:53:08;18.20;;;5.63;;
79790;SDS011;69278;52.220;5.172;2023-10-08T02:55:38;17.40;;;5.22;;
79790;SDS011;69278;52.220;5.172;2023-10-08T02:58:10;21.05;;;5.72;;
79790;SDS011;69278;52.220;5.172;2023-10-08T03:00:47;18.25;;;5.60;;
79790;SDS011;69278;52.220;5.172;2023-10-08T03:03:15;12.57;;;5.07;;
79790;SDS011;69278;52.220;5.172;2023-10-08T03:05:45;20.55;;;5.65;;
79790;SDS011;69278;52.220;5.172;2023-10-08T03:08:13;16.52;;;5.20;;
79790;SDS011;69278;52.220;5.172;2023-10-08T03:10:46;14.98;;;5.18;;
79790;SDS011;69278;52.220;5.172;2023-10-08T03:13:16;16.83;;;5.60;;
79790;SDS011;69278;52.220;5.172;2023-10-08T03:15:45;16.77;;;5.47;;
79790;SDS011;69278;52.220;5.172;2023-10-08T03:18:27;18.95;;;5.65;;
79790;SDS011;69278;52.220;5.172;2023-10-08T03:21:07;18.27;;;5.78;;
79790;SDS011;69278;52.220;5.172;2023-10-08T03:24:08;19.42;;;5.75;;
79790;SDS011;69278;52.220;5.172;2023-10-08T03:26:53;13.60;;;5.65;;
79790;SDS011;69278;52.220;5.172;2023-10-08T03:29:22;19.43;;;6.37;;
79790;SDS011;69278;52.220;5.172;2023-10-08T03:31:56;17.35;;;5.55;;
79790;SDS011;69278;52.220;5.172;2023-10-08T03:34:23;18.40;;;5.93;;
79790;SDS011;69278;52.220;5.172;2023-10-08T03:36:54;17.15;;;5.57;;
79790;SDS011;69278;52.220;5.172;2023-10-08T03:39:31;19.20;;;5.55;;
79790;SDS011;69278;52.220;5.172;2023-10-08T03:42:23;19.30;;;5.77;;
79790;SDS011;69278;52.220;5.172;2023-10-08T03:44:50;18.98;;;5.60;;
79790;SDS011;69278;52.220;5.172;2023-10-08T03:47:22;14.68;;;5.22;;
79790;SDS011;69278;52.220;5.172;2023-10-08T03:49:49;17.48;;;5.18;;
79790;SDS011;69278;52.220;5.172;2023-10-08T03:52:17;15.68;;;5.32;;
79790;SDS011;69278;52.220;5.172;2023-10-08T03:54:50;15.70;;;4.97;;
79790;SDS011;69278;52.220;5.172;2023-10-08T03:57:30;21.23;;;5.40;;
79790;SDS011;69278;52.220;5.172;2023-10-08T04:00:10;20.95;;;4.93;;
79790;SDS011;69278;52.220;5.172;2023-10-08T04:02:45;16.38;;;4.95;;
79790;SDS011;69278;52.220;5.172;2023-10-08T04:05:22;18.73;;;5.53;;
79790;SDS011;69278;52.220;5.172;2023-10-08T04:07:53;18.63;;;4.60;;
79790;SDS011;69278;52.220;5.172;2023-10-08T04:10:27;18.75;;;4.40;;
79790;SDS011;69278;52.220;5.172;2023-10-08T04:13:09;12.85;;;3.97;;
79790;SDS011;69278;52.220;5.172;2023-10-08T04:15:36;14.63;;;3.83;;
79790;SDS011;69278;52.220;5.172;2023-10-08T04:18:10;16.30;;;3.90;;
79790;SDS011;69278;52.220;5.172;2023-10-08T04:20:39;11.27;;;3.83;;
79790;SDS011;69278;52.220;5.172;2023-10-08T04:23:06;10.23;;;3.15;;
79790;SDS011;69278;52.220;5.172;2023-10-08T04:25:44;12.55;;;3.60;;
79790;SDS011;69278;52.220;5.172;2023-10-08T04:28:11;12.73;;;3.45;;
79790;SDS011;69278;52.220;5.172;2023-10-08T04:30:40;14.32;;;3.40;;
79790;SDS011;69278;52.220;5.172;2023-10-08T04:33:08;11.50;;;2.97;;
79790;SDS011;69278;52.220;5.172;2023-10-08T04:35:40;15.68;;;3.15;;
79790;SDS011;69278;52.220;5.172;2023-10-08T04:38:15;12.07;;;2.47;;
79790;SDS011;69278;52.220;5.172;2023-10-08T04:40:45;8.60;;;2.60;;
79790;SDS011;69278;52.220;5.172;2023-10-08T04:43:15;10.10;;;2.40;;
79790;SDS011;69278;52.220;5.172;2023-10-08T04:45:49;10.57;;;2.10;;
79790;SDS011;69278;52.220;5.172;2023-10-08T04:48:16;8.82;;;2.25;;
79790;SDS011;69278;52.220;5.172;2023-10-08T04:50:47;7.75;;;1.85;;
79790;SDS011;69278;52.220;5.172;2023-10-08T04:53:31;7.35;;;1.80;;
79790;SDS011;69278;52.220;5.172;2023-10-08T04:56:07;8.07;;;2.10;;
79790;SDS011;69278;52.220;5.172;2023-10-08T04:58:46;5.60;;;1.50;;
79790;SDS011;69278;52.220;5.172;2023-10-08T05:01:14;4.68;;;1.50;;
79790;SDS011;69278;52.220;5.172;2023-10-08T05:03:46;5.05;;;1.80;;
79790;SDS011;69278;52.220;5.172;2023-10-08T05:06:23;4.53;;;1.65;;
79790;SDS011;69278;52.220;5.172;2023-10-08T05:09:13;5.88;;;1.70;;
79790;SDS011;69278;52.220;5.172;2023-10-08T05:11:46;6.33;;;1.73;;
79790;SDS011;69278;52.220;5.172;2023-10-08T05:14:17;6.43;;;1.60;;
79790;SDS011;69278;52.220;5.172;2023-10-08T05:17:08;5.63;;;1.70;;
79790;SDS011;69278;52.220;5.172;2023-10-08T05:19:57;6.03;;;1.98;;
79790;SDS011;69278;52.220;5.172;2023-10-08T05:22:24;6.15;;;1.50;;
79790;SDS011;69278;52.220;5.172;2023-10-08T05:24:54;6.60;;;1.87;;
79790;SDS011;69278;52.220;5.172;2023-10-08T05:27:40;5.18;;;1.75;;
79790;SDS011;69278;52.220;5.172;2023-10-08T05:30:12;6.10;;;1.80;;
79790;SDS011;69278;52.220;5.172;2023-10-08T05:32:43;6.78;;;2.00;;
79790;SDS011;69278;52.220;5.172;2023-10-08T05:35:39;6.97;;;2.17;;
79790;SDS011;69278;52.220;5.172;2023-10-08T05:38:07;9.43;;;2.10;;
79790;SDS011;69278;52.220;5.172;2023-10-08T05:41:00;7.72;;;2.10;;
79790;SDS011;69278;52.220;5.172;2023-10-08T05:43:27;10.50;;;2.10;;
79790;SDS011;69278;52.220;5.172;2023-10-08T05:46:13;7.75;;;1.70;;
79790;SDS011;69278;52.220;5.172;2023-10-08T05:48:50;6.72;;;2.03;;
79790;SDS011;69278;52.220;5.172;2023-10-08T05:51:33;7.43;;;2.13;;
79790;SDS011;69278;52.220;5.172;2023-10-08T05:54:11;5.55;;;2.03;;
79790;SDS011;69278;52.220;5.172;2023-10-08T05:56:52;4.03;;;1.80;;
79790;SDS011;69278;52.220;5.172;2023-10-08T05:59:33;6.43;;;1.70;;
79790;SDS011;69278;52.220;5.172;2023-10-08T06:02:05;4.93;;;1.90;;
79790;SDS011;69278;52.220;5.172;2023-10-08T06:04:56;6.53;;;1.90;;
79790;SDS011;69278;52.220;5.172;2023-10-08T06:13:00;8.25;;;2.15;;
79790;SDS011;69278;52.220;5.172;2023-10-08T06:15:50;5.85;;;1.80;;
79790;SDS011;69278;52.220;5.172;2023-10-08T06:18:32;7.57;;;2.10;;
79790;SDS011;69278;52.220;5.172;2023-10-08T06:23:35;5.18;;;1.73;;
79790;SDS011;69278;52.220;5.172;2023-10-08T06:26:03;9.80;;;2.00;;
79790;SDS011;69278;52.220;5.172;2023-10-08T06:28:37;6.90;;;1.92;;
79790;SDS011;69278;52.220;5.172;2023-10-08T06:31:05;5.23;;;1.60;;
79790;SDS011;69278;52.220;5.172;2023-10-08T06:33:38;2.60;;;1.35;;
79790;SDS011;69278;52.220;5.172;2023-10-08T06:36:08;4.10;;;1.40;;
79790;SDS011;69278;52.220;5.172;2023-10-08T06:38:37;6.07;;;1.70;;
79790;SDS011;69278;52.220;5.172;2023-10-08T06:41:06;4.35;;;1.40;;
79790;SDS011;69278;52.220;5.172;2023-10-08T06:44:00;3.73;;;1.50;;
79790;SDS011;69278;52.220;5.172;2023-10-08T06:46:30;5.57;;;1.30;;
79790;SDS011;69278;52.220;5.172;2023-10-08T06:48:59;4.40;;;1.50;;
79790;SDS011;69278;52.220;5.172;2023-10-08T06:51:29;5.63;;;1.58;;
79790;SDS011;69278;52.220;5.172;2023-10-08T06:53:59;2.63;;;1.35;;
79790;SDS011;69278;52.220;5.172;2023-10-08T06:56:29;4.87;;;1.20;;
79790;SDS011;69278;52.220;5.172;2023-10-08T06:58:58;2.10;;;1.00;;
79790;SDS011;69278;52.220;5.172;2023-10-08T07:01:25;2.50;;;1.15;;
79790;SDS011;69278;52.220;5.172;2023-10-08T07:03:54;3.05;;;1.10;;
79790;SDS011;69278;52.220;5.172;2023-10-08T07:06:29;2.10;;;1.10;;
79790;SDS011;69278;52.220;5.172;2023-10-08T07:09:01;2.70;;;1.13;;
79790;SDS011;69278;52.220;5.172;2023-10-08T07:11:32;2.28;;;1.05;;
79790;SDS011;69278;52.220;5.172;2023-10-08T07:14:01;2.83;;;0.90;;
79790;SDS011;69278;52.220;5.172;2023-10-08T07:16:30;2.42;;;1.00;;
79790;SDS011;69278;52.220;5.172;2023-10-08T07:19:00;3.00;;;1.10;;
79790;SDS011;69278;52.220;5.172;2023-10-08T07:21:31;1.87;;;1.00;;
79790;SDS011;69278;52.220;5.172;2023-10-08T07:24:12;3.85;;;1.20;;
79790;SDS011;69278;52.220;5.172;2023-10-08T07:26:43;4.35;;;1.20;;
79790;SDS011;69278;52.220;5.172;2023-10-08T07:29:14;2.17;;;1.20;;
79790;SDS011;69278;52.220;5.172;2023-10-08T07:31:46;5.57;;;1.20;;
79790;SDS011;69278;52.220;5.172;2023-10-08T07:34:15;2.63;;;1.10;;
79790;SDS011;69278;52.220;5.172;2023-10-08T07:36:47;2.20;;;1.30;;
79790;SDS011;69278;52.220;5.172;2023-10-08T07:39:15;3.92;;;1.20;;
79790;SDS011;69278;52.220;5.172;2023-10-08T07:41:54;2.13;;;1.20;;
79790;SDS011;69278;52.220;5.172;2023-10-08T07:44:22;2.10;;;1.20;;
79790;SDS011;69278;52.220;5.172;2023-10-08T07:46:49;2.13;;;1.30;;
79790;SDS011;69278;52.220;5.172;2023-10-08T07:49:17;2.88;;;1.27;;
79790;SDS011;69278;52.220;5.172;2023-10-08T07:51:44;1.95;;;1.20;;
79790;SDS011;69278;52.220;5.172;2023-10-08T07:54:23;1.40;;;1.00;;
79790;SDS011;69278;52.220;5.172;2023-10-08T07:56:56;3.78;;;1.20;;
79790;SDS011;69278;52.220;5.172;2023-10-08T07:59:43;2.67;;;1.20;;
79790;SDS011;69278;52.220;5.172;2023-10-08T08:02:22;2.28;;;1.30;;
79790;SDS011;69278;52.220;5.172;2023-10-08T08:04:53;3.03;;;1.70;;
79790;SDS011;69278;52.220;5.172;2023-10-08T08:07:20;2.53;;;1.20;;
79790;SDS011;69278;52.220;5.172;2023-10-08T08:09:48;2.95;;;1.40;;
79790;SDS011;69278;52.220;5.172;2023-10-08T08:12:19;3.20;;;1.43;;
79790;SDS011;69278;52.220;5.172;2023-10-08T08:14:48;2.78;;;1.33;;
79790;SDS011;69278;52.220;5.172;2023-10-08T08:17:14;3.38;;;1.42;;
79790;SDS011;69278;52.220;5.172;2023-10-08T08:19:48;2.55;;;1.42;;
79790;SDS011;69278;52.220;5.172;2023-10-08T08:22:16;1.98;;;1.20;;
79790;SDS011;69278;52.220;5.172;2023-10-08T08:24:57;1.90;;;1.30;;
79790;SDS011;69278;52.220;5.172;2023-10-08T08:27:42;2.83;;;1.50;;
79790;SDS011;69278;52.220;5.172;2023-10-08T08:30:15;3.08;;;1.60;;
79790;SDS011;69278;52.220;5.172;2023-10-08T08:32:45;2.55;;;1.30;;
79790;SDS011;69278;52.220;5.172;2023-10-08T08:35:19;3.30;;;1.67;;
79790;SDS011;69278;52.220;5.172;2023-10-08T08:37:46;3.37;;;1.87;;
79790;SDS011;69278;52.220;5.172;2023-10-08T08:40:13;4.40;;;1.65;;
79790;SDS011;69278;52.220;5.172;2023-10-08T08:42:47;3.90;;;1.60;;
79790;SDS011;69278;52.220;5.172;2023-10-08T08:45:19;3.38;;;1.35;;
79790;SDS011;69278;52.220;5.172;2023-10-08T08:47:47;2.78;;;1.40;;
79790;SDS011;69278;52.220;5.172;2023-10-08T08:50:14;2.40;;;1.30;;
79790;SDS011;69278;52.220;5.172;2023-10-08T08:52:41;2.70;;;1.35;;
79790;SDS011;69278;52.220;5.172;2023-10-08T08:55:07;3.15;;;1.55;;
79790;SDS011;69278;52.220;5.172;2023-10-08T08:57:46;4.15;;;1.50;;
79790;SDS011;69278;52.220;5.172;2023-10-08T09:00:14;3.80;;;1.40;;
79790;SDS011;69278;52.220;5.172;2023-10-08T09:02:46;2.33;;;1.43;;
79790;SDS011;69278;52.220;5.172;2023-10-08T09:05:15;3.35;;;1.33;;
79790;SDS011;69278;52.220;5.172;2023-10-08T09:08:02;4.18;;;1.50;;
79790;SDS011;69278;52.220;5.172;2023-10-08T09:10:31;2.72;;;1.27;;
79790;SDS011;69278;52.220;5.172;2023-10-08T09:13:04;3.03;;;1.30;;
79790;SDS011;69278;52.220;5.172;2023-10-08T09:15:32;2.83;;;1.30;;
79790;SDS011;69278;52.220;5.172;2023-10-08T09:17:59;2.72;;;1.55;;
79790;SDS011;69278;52.220;5.172;2023-10-08T09:20:27;3.28;;;1.30;;
79790;SDS011;69278;52.220;5.172;2023-10-08T09:23:07;3.25;;;1.23;;
79790;SDS011;69278;52.220;5.172;2023-10-08T09:25:42;4.60;;;1.40;;
79790;SDS011;69278;52.220;5.172;2023-10-08T09:28:10;5.17;;;1.43;;
79790;SDS011;69278;52.220;5.172;2023-10-08T09:30:40;2.67;;;1.10;;
79790;SDS011;69278;52.220;5.172;2023-10-08T09:33:07;3.25;;;1.42;;
79790;SDS011;69278;52.220;5.172;2023-10-08T09:35:36;3.65;;;1.40;;
79790;SDS011;69278;52.220;5.172;2023-10-08T09:38:03;2.03;;;1.20;;
79790;SDS011;69278;52.220;5.172;2023-10-08T09:40:30;3.50;;;1.33;;
79790;SDS011;69278;52.220;5.172;2023-10-08T09:42:57;4.43;;;1.70;;
79790;SDS011;69278;52.220;5.172;2023-10-08T09:45:25;7.40;;;2.80;;
79790;SDS011;69278;52.220;5.172;2023-10-08T09:47:55;4.90;;;1.90;;
79790;SDS011;69278;52.220;5.172;2023-10-08T09:50:27;5.88;;;2.10;;
79790;SDS011;69278;52.220;5.172;2023-10-08T09:53:00;4.63;;;1.80;;
79790;SDS011;69278;52.220;5.172;2023-10-08T09:55:32;3.28;;;1.55;;
79790;SDS011;69278;52.220;5.172;2023-10-08T09:57:59;3.60;;;1.38;;
79790;SDS011;69278;52.220;5.172;2023-10-08T10:00:26;4.00;;;1.50;;
79790;SDS011;69278;52.220;5.172;2023-10-08T10:03:01;3.65;;;1.58;;
79790;SDS011;69278;52.220;5.172;2023-10-08T10:05:29;4.10;;;1.70;;
79790;SDS011;69278;52.220;5.172;2023-10-08T10:07:58;6.57;;;1.85;;
79790;SDS011;69278;52.220;5.172;2023-10-08T10:10:25;6.68;;;2.20;;
79790;SDS011;69278;52.220;5.172;2023-10-08T10:12:52;4.15;;;1.80;;
79790;SDS011;69278;52.220;5.172;2023-10-08T10:15:22;3.58;;;1.50;;
79790;SDS011;69278;52.220;5.172;2023-10-08T10:18:07;4.13;;;1.57;;
79790;SDS011;69278;52.220;5.172;2023-10-08T10:20:58;4.05;;;1.63;;
79790;SDS011;69278;52.220;5.172;2023-10-08T10:23:36;3.78;;;1.52;;
79790;SDS011;69278;52.220;5.172;2023-10-08T10:26:23;4.57;;;1.42;;
79790;SDS011;69278;52.220;5.172;2023-10-08T10:31:42;3.80;;;1.70;;
79790;SDS011;69278;52.220;5.172;2023-10-08T10:34:13;4.07;;;1.60;;
79790;SDS011;69278;52.220;5.172;2023-10-08T10:36:43;2.95;;;1.52;;
79790;SDS011;69278;52.220;5.172;2023-10-08T10:39:15;4.97;;;1.52;;
79790;SDS011;69278;52.220;5.172;2023-10-08T10:41:46;3.58;;;1.50;;
79790;SDS011;69278;52.220;5.172;2023-10-08T10:44:15;3.10;;;1.30;;
79790;SDS011;69278;52.220;5.172;2023-10-08T10:46:42;3.28;;;1.38;;
79790;SDS011;69278;52.220;5.172;2023-10-08T10:49:19;5.90;;;1.60;;
79790;SDS011;69278;52.220;5.172;2023-10-08T10:52:03;3.30;;;1.60;;
79790;SDS011;69278;52.220;5.172;2023-10-08T10:54:32;3.08;;;1.60;;
79790;SDS011;69278;52.220;5.172;2023-10-08T10:57:02;3.13;;;1.70;;
79790;SDS011;69278;52.220;5.172;2023-10-08T10:59:30;3.47;;;1.63;;
79790;SDS011;69278;52.220;5.172;2023-10-08T11:02:05;2.95;;;1.70;;
79790;SDS011;69278;52.220;5.172;2023-10-08T11:04:47;2.70;;;1.52;;
79790;SDS011;69278;52.220;5.172;2023-10-08T11:07:17;4.47;;;1.70;;
79790;SDS011;69278;52.220;5.172;2023-10-08T11:09:49;4.03;;;1.80;;
79790;SDS011;69278;52.220;5.172;2023-10-08T11:12:18;4.70;;;1.70;;
79790;SDS011;69278;52.220;5.172;2023-10-08T11:14:49;4.72;;;1.77;;
79790;SDS011;69278;52.220;5.172;2023-10-08T11:17:23;4.03;;;2.00;;
79790;SDS011;69278;52.220;5.172;2023-10-08T11:19:51;3.58;;;1.90;;
79790;SDS011;69278;52.220;5.172;2023-10-08T11:22:18;3.80;;;2.30;;
79790;SDS011;69278;52.220;5.172;2023-10-08T11:24:49;4.40;;;2.25;;
79790;SDS011;69278;52.220;5.172;2023-10-08T11:27:20;3.40;;;1.95;;
79790;SDS011;69278;52.220;5.172;2023-10-08T11:30:01;3.25;;;1.85;;
79790;SDS011;69278;52.220;5.172;2023-10-08T11:32:28;3.30;;;1.90;;
79790;SDS011;69278;52.220;5.172;2023-10-08T11:34:59;4.43;;;2.10;;
79790;SDS011;69278;52.220;5.172;2023-10-08T11:37:29;4.60;;;2.20;;
79790;SDS011;69278;52.220;5.172;2023-10-08T11:40:00;4.85;;;2.17;;
79790;SDS011;69278;52.220;5.172;2023-10-08T11:42:35;3.55;;;2.00;;
79790;SDS011;69278;52.220;5.172;2023-10-08T11:45:01;4.10;;;2.10;;
79790;SDS011;69278;52.220;5.172;2023-10-08T11:47:47;3.30;;;1.90;;
79790;SDS011;69278;52.220;5.172;2023-10-08T11:50:25;5.35;;;2.20;;
79790;SDS011;69278;52.220;5.172;2023-10-08T11:52:59;4.07;;;2.22;;
79790;SDS011;69278;52.220;5.172;2023-10-08T11:55:30;3.95;;;2.08;;
79790;SDS011;69278;52.220;5.172;2023-10-08T11:58:02;4.20;;;2.30;;
79790;SDS011;69278;52.220;5.172;2023-10-08T12:00:38;4.63;;;2.13;;
79790;SDS011;69278;52.220;5.172;2023-10-08T12:03:14;4.03;;;2.38;;
79790;SDS011;69278;52.220;5.172;2023-10-08T12:05:47;3.95;;;2.40;;
79790;SDS011;69278;52.220;5.172;2023-10-08T12:08:19;4.30;;;2.53;;
79790;SDS011;69278;52.220;5.172;2023-10-08T12:10:49;6.00;;;2.60;;
79790;SDS011;69278;52.220;5.172;2023-10-08T12:13:21;4.20;;;2.73;;
79790;SDS011;69278;52.220;5.172;2023-10-08T12:15:55;4.35;;;2.30;;
79790;SDS011;69278;52.220;5.172;2023-10-08T12:18:33;5.63;;;2.70;;
79790;SDS011;69278;52.220;5.172;2023-10-08T12:21:06;4.47;;;2.55;;
79790;SDS011;69278;52.220;5.172;2023-10-08T12:23:37;6.95;;;2.80;;
79790;SDS011;69278;52.220;5.172;2023-10-08T12:26:04;5.00;;;3.30;;
79790;SDS011;69278;52.220;5.172;2023-10-08T12:28:34;5.57;;;3.25;;
79790;SDS011;69278;52.220;5.172;2023-10-08T12:31:00;45.22;;;26.33;;
79790;SDS011;69278;52.220;5.172;2023-10-08T12:33:27;9.32;;;5.40;;
79790;SDS011;69278;52.220;5.172;2023-10-08T12:35:56;26.52;;;18.17;;
79790;SDS011;69278;52.220;5.172;2023-10-08T12:38:24;5.77;;;3.77;;
79790;SDS011;69278;52.220;5.172;2023-10-08T12:40:54;6.60;;;3.22;;
79790;SDS011;69278;52.220;5.172;2023-10-08T12:43:21;5.05;;;3.08;;
79790;SDS011;69278;52.220;5.172;2023-10-08T12:45:49;7.70;;;4.00;;
79790;SDS011;69278;52.220;5.172;2023-10-08T12:50:50;7.50;;;3.33;;
79790;SDS011;69278;52.220;5.172;2023-10-08T12:53:23;7.15;;;4.00;;
79790;SDS011;69278;52.220;5.172;2023-10-08T12:55:53;6.30;;;3.40;;
79790;SDS011;69278;52.220;5.172;2023-10-08T12:58:21;6.15;;;3.60;;
79790;SDS011;69278;52.220;5.172;2023-10-08T13:00:55;5.85;;;3.30;;
79790;SDS011;69278;52.220;5.172;2023-10-08T13:03:29;7.37;;;2.90;;
79790;SDS011;69278;52.220;5.172;2023-10-08T13:05:59;5.57;;;2.80;;
79790;SDS011;69278;52.220;5.172;2023-10-08T13:08:32;6.63;;;2.90;;
79790;SDS011;69278;52.220;5.172;2023-10-08T13:11:02;5.65;;;2.92;;
79790;SDS011;69278;52.220;5.172;2023-10-08T13:13:30;6.30;;;3.60;;
79790;SDS011;69278;52.220;5.172;2023-10-08T13:15:58;5.10;;;3.20;;
79790;SDS011;69278;52.220;5.172;2023-10-08T13:18:29;6.20;;;2.83;;
79790;SDS011;69278;52.220;5.172;2023-10-08T13:20:56;6.43;;;2.80;;
79790;SDS011;69278;52.220;5.172;2023-10-08T13:23:24;6.00;;;2.40;;
79790;SDS011;69278;52.220;5.172;2023-10-08T13:25:50;10.98;;;5.30;;
79790;SDS011;69278;52.220;5.172;2023-10-08T13:28:30;8.07;;;3.60;;
79790;SDS011;69278;52.220;5.172;2023-10-08T13:31:00;8.75;;;4.90;;
79790;SDS011;69278;52.220;5.172;2023-10-08T13:33:39;7.43;;;2.60;;
79790;SDS011;69278;52.220;5.172;2023-10-08T13:36:09;6.20;;;2.30;;
79790;SDS011;69278;52.220;5.172;2023-10-08T13:38:44;7.55;;;3.15;;
79790;SDS011;69278;52.220;5.172;2023-10-08T13:41:12;7.60;;;3.63;;
79790;SDS011;69278;52.220;5.172;2023-10-08T13:43:43;7.20;;;3.20;;
79790;SDS011;69278;52.220;5.172;2023-10-08T13:46:18;5.75;;;2.20;;
79790;SDS011;69278;52.220;5.172;2023-10-08T13:48:49;6.78;;;2.40;;
79790;SDS011;69278;52.220;5.172;2023-10-08T13:51:16;4.60;;;2.30;;
79790;SDS011;69278;52.220;5.172;2023-10-08T13:53:50;5.07;;;2.37;;
79790;SDS011;69278;52.220;5.172;2023-10-08T13:56:26;4.72;;;2.00;;
79790;SDS011;69278;52.220;5.172;2023-10-08T13:58:54;8.48;;;2.45;;
79790;SDS011;69278;52.220;5.172;2023-10-08T14:01:40;6.22;;;2.30;;
79790;SDS011;69278;52.220;5.172;2023-10-08T14:04:09;6.40;;;1.90;;
79790;SDS011;69278;52.220;5.172;2023-10-08T14:06:37;4.13;;;2.17;;
79790;SDS011;69278;52.220;5.172;2023-10-08T14:09:07;5.07;;;2.10;;
79790;SDS011;69278;52.220;5.172;2023-10-08T14:11:50;4.70;;;2.20;;
79790;SDS011;69278;52.220;5.172;2023-10-08T14:14:19;8.00;;;2.00;;
79790;SDS011;69278;52.220;5.172;2023-10-08T14:16:46;4.70;;;2.00;;
79790;SDS011;69278;52.220;5.172;2023-10-08T14:19:20;4.23;;;2.00;;
79790;SDS011;69278;52.220;5.172;2023-10-08T14:21:55;4.72;;;1.90;;
79790;SDS011;69278;52.220;5.172;2023-10-08T14:24:29;7.32;;;2.00;;
79790;SDS011;69278;52.220;5.172;2023-10-08T14:27:01;5.05;;;2.10;;
79790;SDS011;69278;52.220;5.172;2023-10-08T14:29:39;3.92;;;1.92;;
79790;SDS011;69278;52.220;5.172;2023-10-08T14:32:07;6.33;;;1.90;;
79790;SDS011;69278;52.220;5.172;2023-10-08T14:34:37;6.30;;;2.10;;
79790;SDS011;69278;52.220;5.172;2023-10-08T14:37:13;4.45;;;1.98;;
79790;SDS011;69278;52.220;5.172;2023-10-08T14:39:59;5.13;;;1.92;;
79790;SDS011;69278;52.220;5.172;2023-10-08T14:42:44;5.60;;;2.00;;
79790;SDS011;69278;52.220;5.172;2023-10-08T14:45:26;5.43;;;1.93;;
79790;SDS011;69278;52.220;5.172;2023-10-08T14:48:01;5.47;;;2.30;;
79790;SDS011;69278;52.220;5.172;2023-10-08T14:50:28;4.50;;;2.08;;
79790;SDS011;69278;52.220;5.172;2023-10-08T14:52:58;5.10;;;1.90;;
79790;SDS011;69278;52.220;5.172;2023-10-08T14:55:31;7.18;;;2.15;;
79790;SDS011;69278;52.220;5.172;2023-10-08T14:58:02;5.90;;;1.80;;
79790;SDS011;69278;52.220;5.172;2023-10-08T15:00:34;7.65;;;1.98;;
79790;SDS011;69278;52.220;5.172;2023-10-08T15:03:05;4.47;;;2.10;;
79790;SDS011;69278;52.220;5.172;2023-10-08T15:05:32;6.55;;;2.03;;
79790;SDS011;69278;52.220;5.172;2023-10-08T15:08:00;6.38;;;2.00;;
79790;SDS011;69278;52.220;5.172;2023-10-08T15:10:26;3.93;;;1.80;;
79790;SDS011;69278;52.220;5.172;2023-10-08T15:12:53;3.95;;;1.73;;
79790;SDS011;69278;52.220;5.172;2023-10-08T15:15:20;4.32;;;1.90;;
79790;SDS011;69278;52.220;5.172;2023-10-08T15:17:51;7.38;;;2.00;;
79790;SDS011;69278;52.220;5.172;2023-10-08T15:20:18;4.32;;;1.90;;
79790;SDS011;69278;52.220;5.172;2023-10-08T15:22:47;4.13;;;2.00;;
79790;SDS011;69278;52.220;5.172;2023-10-08T15:25:15;5.70;;;2.00;;
79790;SDS011;69278;52.220;5.172;2023-10-08T15:27:43;4.10;;;1.80;;